Terminal Aerodrome Forecast
Issued by NWS Wilmington, OH

Current Version | Previous Version | Text Only | Print | Product List | Glossary Off
Versions: 1 2 3 4 5 6 7 8 9 10 11 12 13 14 15 16 17 18 19 20 21 22 23 24 25 26 27 28 29

000
FTUS41 KILN 262342
TAFCVG
TAF
KCVG 262342Z 2700/2806 VRB03KT P6SM SCT050 BKN150
     FM270400 VRB03KT 6SM BR VCSH BKN050 BKN100
     FM271000 VRB03KT 4SM BR SCT050 BKN100
     FM271400 VRB05KT P6SM SCT035 SCT100
     FM271800 VRB05KT P6SM VCSH BKN040
     FM280100 05004KT P6SM SCT050 SCT100=

USA.gov is the U.S. government's official web portal to all federal, state and local government web resources and services.